createdAt,value
2022-08-21T00:00:25.523Z,0.00
2022-08-21T00:01:25.506Z,0.00
2022-08-21T00:02:25.555Z,0.00
2022-08-21T00:03:25.480Z,0.00
2022-08-21T00:04:25.966Z,0.00
2022-08-21T00:05:25.458Z,0.00
2022-08-21T00:06:25.433Z,0.00
2022-08-21T00:07:25.478Z,0.00
2022-08-21T00:08:25.407Z,0.00
2022-08-21T00:09:25.394Z,0.00
2022-08-21T00:10:25.388Z,0.00
2022-08-21T00:11:25.371Z,0.00
2022-08-21T00:12:25.355Z,0.00
2022-08-21T00:13:25.340Z,0.00
2022-08-21T00:14:25.324Z,0.00
2022-08-21T00:15:25.315Z,0.00
2022-08-21T00:16:25.296Z,0.00
2022-08-21T00:17:25.282Z,0.00
2022-08-21T00:18:25.268Z,0.00
2022-08-21T00:19:25.261Z,0.00
2022-08-21T00:20:25.595Z,0.00
2022-08-21T00:21:25.234Z,0.00
2022-08-21T00:22:25.213Z,0.00
2022-08-21T00:23:25.203Z,0.00
2022-08-21T00:24:25.186Z,0.00
2022-08-21T00:25:26.111Z,0.00
2022-08-21T00:26:25.159Z,0.00
2022-08-21T00:27:25.153Z,0.00
2022-08-21T00:28:25.135Z,0.00
2022-08-21T00:29:25.129Z,0.00
2022-08-21T00:30:25.101Z,0.00
2022-08-21T00:31:25.085Z,0.00
2022-08-21T00:32:25.069Z,0.00
2022-08-21T00:33:25.058Z,0.00
2022-08-21T00:34:25.041Z,0.00
2022-08-21T00:35:25.034Z,0.00
2022-08-21T00:36:25.015Z,0.00
2022-08-21T00:37:25.001Z,0.00
2022-08-21T00:38:24.997Z,0.00
2022-08-21T00:39:24.982Z,0.00
2022-08-21T00:40:24.971Z,0.00
2022-08-21T00:41:38.239Z,0.00
2022-08-21T00:42:25.959Z,0.00
2022-08-21T00:43:24.925Z,0.00
2022-08-21T00:44:24.907Z,0.00
2022-08-21T00:45:24.898Z,0.00
2022-08-21T00:46:28.062Z,0.00
2022-08-21T00:47:24.866Z,0.00
2022-08-21T00:48:24.847Z,0.00
2022-08-21T00:49:24.838Z,0.00
2022-08-21T00:50:24.824Z,0.00
2022-08-21T00:51:24.807Z,0.00
2022-08-21T00:52:24.792Z,0.00
2022-08-21T00:53:24.780Z,0.00
2022-08-21T00:54:24.770Z,0.00
2022-08-21T00:55:24.762Z,0.00
2022-08-21T00:56:24.741Z,0.00
2022-08-21T00:57:24.735Z,0.00
2022-08-21T00:58:24.713Z,0.00
2022-08-21T00:59:24.703Z,0.00
2022-08-21T01:00:24.683Z,0.00
2022-08-21T01:01:24.732Z,0.00
2022-08-21T01:02:24.658Z,0.00
2022-08-21T01:03:24.654Z,0.00
2022-08-21T01:04:24.632Z,0.00
2022-08-21T01:05:24.621Z,0.00
2022-08-21T01:06:24.609Z,0.00
2022-08-21T01:07:24.595Z,0.00
2022-08-21T01:08:24.577Z,0.00
2022-08-21T01:09:24.566Z,0.00
2022-08-21T01:10:24.737Z,0.00
2022-08-21T01:11:24.536Z,0.00
2022-08-21T01:12:24.521Z,0.00
2022-08-21T01:13:24.507Z,0.00
2022-08-21T01:14:24.493Z,0.00
2022-08-21T01:15:24.476Z,0.00
2022-08-21T01:16:24.463Z,0.00
2022-08-21T01:17:24.455Z,0.00
2022-08-21T01:18:24.438Z,0.00
2022-08-21T01:19:24.441Z,0.00
2022-08-21T01:20:32.730Z,0.00
2022-08-21T01:21:28.381Z,0.00
2022-08-21T01:22:24.385Z,0.00
2022-08-21T01:23:24.376Z,0.00
2022-08-21T01:24:24.359Z,0.00
2022-08-21T01:25:24.345Z,0.00
2022-08-21T01:26:24.327Z,0.00
2022-08-21T01:27:25.330Z,0.00
2022-08-21T01:28:24.298Z,0.00
2022-08-21T01:29:24.289Z,0.00
2022-08-21T01:30:24.276Z,0.00
2022-08-21T01:31:24.767Z,0.00
2022-08-21T01:32:24.247Z,0.00
2022-08-21T01:33:24.239Z,0.00
2022-08-21T01:34:24.214Z,0.00
2022-08-21T01:35:24.206Z,0.00
2022-08-21T01:36:24.191Z,0.00
2022-08-21T01:37:24.177Z,0.00
2022-08-21T01:38:24.159Z,0.00
2022-08-21T01:39:24.150Z,0.00
2022-08-21T01:40:24.215Z,0.00
2022-08-21T01:41:24.120Z,0.00
2022-08-21T01:42:24.109Z,0.00
2022-08-21T01:43:32.367Z,0.00
2022-08-21T01:44:25.107Z,0.00
2022-08-21T01:45:24.073Z,0.00
2022-08-21T01:46:24.051Z,0.00
2022-08-21T01:47:24.049Z,0.00
2022-08-21T01:48:24.036Z,0.00
2022-08-21T01:49:24.016Z,0.00
2022-08-21T01:50:23.997Z,0.00
2022-08-21T01:51:23.989Z,0.00
2022-08-21T01:52:23.969Z,0.00
2022-08-21T01:53:27.938Z,0.00
2022-08-21T01:54:24.964Z,0.00
2022-08-21T01:55:23.931Z,0.00
2022-08-21T01:56:23.912Z,0.00
2022-08-21T01:57:26.359Z,0.00
2022-08-21T01:58:23.889Z,0.00
2022-08-21T01:59:23.882Z,0.00
2022-08-21T02:00:23.866Z,0.00
2022-08-21T02:01:23.917Z,0.00
2022-08-21T02:02:23.835Z,0.00
2022-08-21T02:03:26.401Z,0.00
2022-08-21T02:04:24.828Z,0.00
2022-08-21T02:05:23.795Z,0.00
2022-08-21T02:06:23.778Z,0.00
2022-08-21T02:07:23.773Z,0.00
2022-08-21T02:08:23.758Z,0.00
2022-08-21T02:09:24.349Z,0.00
2022-08-21T02:10:23.725Z,0.00
2022-08-21T02:11:23.716Z,0.00
2022-08-21T02:12:23.704Z,0.00
2022-08-21T02:14:40.286Z,0.00
2022-08-21T02:15:40.277Z,0.00
2022-08-21T02:16:40.261Z,0.00
2022-08-21T02:17:40.251Z,0.00
2022-08-21T02:18:40.227Z,0.00
2022-08-21T02:19:41.046Z,0.00
2022-08-21T02:20:40.201Z,0.00
2022-08-21T02:21:40.192Z,0.00
2022-08-21T02:22:40.174Z,0.00
2022-08-21T02:23:40.167Z,0.00
2022-08-21T02:24:53.972Z,0.00
2022-08-21T02:25:41.211Z,0.00
2022-08-21T02:26:40.132Z,0.00
2022-08-21T02:27:40.112Z,0.00
2022-08-21T02:28:40.100Z,0.00
2022-08-21T02:29:40.085Z,0.00
2022-08-21T02:30:40.068Z,0.00
2022-08-21T02:31:40.058Z,0.00
2022-08-21T02:32:40.043Z,0.00
2022-08-21T02:33:40.030Z,0.00
2022-08-21T02:34:40.015Z,0.00
2022-08-21T02:35:40.005Z,0.00
2022-08-21T02:36:39.991Z,0.00
2022-08-21T02:37:39.981Z,0.00
2022-08-21T02:38:39.959Z,0.00
2022-08-21T02:39:40.008Z,0.00
2022-08-21T02:40:39.933Z,0.00
2022-08-21T02:41:39.929Z,0.00
2022-08-21T02:42:39.901Z,0.00
2022-08-21T02:43:39.895Z,0.00
2022-08-21T02:44:39.874Z,0.00
2022-08-21T02:45:39.863Z,0.00
2022-08-21T02:46:39.852Z,0.00
2022-08-21T02:47:39.841Z,0.00
2022-08-21T02:48:39.824Z,0.00
2022-08-21T02:49:39.812Z,0.00
2022-08-21T02:50:39.801Z,0.00
2022-08-21T02:51:39.789Z,0.00
2022-08-21T02:52:39.773Z,0.00
2022-08-21T02:53:39.767Z,0.00
2022-08-21T02:54:39.744Z,0.00
2022-08-21T02:55:39.736Z,0.00
2022-08-21T02:56:39.719Z,0.00
2022-08-21T02:57:39.710Z,0.00
2022-08-21T02:58:39.690Z,0.00
2022-08-21T02:59:39.678Z,0.00
2022-08-21T03:00:39.659Z,0.00
2022-08-21T03:01:39.726Z,0.00
2022-08-21T03:02:39.640Z,0.00
2022-08-21T03:03:39.627Z,0.00
2022-08-21T03:04:42.313Z,0.00
2022-08-21T03:05:40.619Z,0.00
2022-08-21T03:06:39.615Z,0.00
2022-08-21T03:07:39.570Z,0.00
2022-08-21T03:08:39.559Z,0.00
2022-08-21T03:09:39.555Z,0.00
2022-08-21T03:10:40.559Z,0.00
2022-08-21T03:11:39.521Z,0.00
2022-08-21T03:12:39.508Z,0.00
2022-08-21T03:13:39.485Z,0.00
2022-08-21T03:14:39.478Z,0.00
2022-08-21T03:15:39.464Z,0.00
2022-08-21T03:16:39.457Z,0.00
2022-08-21T03:17:39.431Z,0.00
2022-08-21T03:18:39.947Z,0.00
2022-08-21T03:19:39.408Z,0.00
2022-08-21T03:20:39.395Z,0.00
2022-08-21T03:21:39.382Z,0.00
2022-08-21T03:22:39.368Z,0.00
2022-08-21T03:23:39.349Z,0.00
2022-08-21T03:24:39.339Z,0.00
2022-08-21T03:25:40.331Z,0.00
2022-08-21T03:26:41.421Z,0.00
2022-08-21T03:27:39.308Z,0.00
2022-08-21T03:28:39.293Z,0.00
2022-08-21T03:29:39.274Z,0.00
2022-08-21T03:30:39.266Z,0.00
2022-08-21T03:31:39.248Z,0.00
2022-08-21T03:32:39.241Z,0.00
2022-08-21T03:33:39.215Z,0.00
2022-08-21T03:34:39.208Z,0.00
2022-08-21T03:35:39.193Z,0.00
2022-08-21T03:36:39.186Z,0.00
2022-08-21T03:37:39.166Z,0.00
2022-08-21T03:38:39.164Z,0.00
2022-08-21T03:39:39.167Z,0.00
2022-08-21T03:40:39.131Z,0.00
2022-08-21T03:41:39.113Z,0.00
2022-08-21T03:42:39.106Z,0.00
2022-08-21T03:43:39.090Z,0.00
2022-08-21T03:44:39.077Z,0.00
2022-08-21T03:45:39.061Z,0.00
2022-08-21T03:46:39.054Z,0.00
2022-08-21T03:47:39.033Z,0.00
2022-08-21T03:48:39.028Z,0.00
2022-08-21T03:49:39.002Z,0.00
2022-08-21T03:50:40.662Z,0.00
2022-08-21T03:51:38.978Z,0.00
2022-08-21T03:52:38.973Z,0.00
2022-08-21T03:53:38.952Z,0.00
2022-08-21T03:54:38.949Z,0.00
2022-08-21T03:55:38.925Z,0.00
2022-08-21T03:56:38.914Z,0.00
2022-08-21T03:57:38.898Z,4.00
2022-08-21T03:58:38.891Z,4.00
2022-08-21T03:59:38.872Z,4.00
2022-08-21T04:00:38.858Z,0.00
2022-08-21T04:01:38.868Z,4.00
2022-08-21T04:02:38.832Z,8.00
2022-08-21T04:03:38.812Z,4.00
2022-08-21T04:04:38.804Z,4.00
2022-08-21T04:05:38.798Z,8.00
2022-08-21T04:06:38.776Z,8.00
2022-08-21T04:07:38.757Z,8.00
2022-08-21T04:08:38.751Z,12.00
2022-08-21T04:09:38.734Z,16.00
2022-08-21T04:10:38.726Z,16.00
2022-08-21T04:11:38.716Z,20.00
2022-08-21T04:12:38.700Z,20.00
2022-08-21T04:13:44.775Z,28.00
2022-08-21T04:14:39.692Z,28.00
2022-08-21T04:15:38.660Z,32.00
2022-08-21T04:16:38.641Z,36.00
2022-08-21T04:17:38.624Z,44.00
2022-08-21T04:18:38.613Z,48.00
2022-08-21T04:19:38.599Z,56.00
2022-08-21T04:20:38.584Z,60.00
2022-08-21T04:21:38.571Z,68.00
2022-08-21T04:22:38.565Z,76.00
2022-08-21T04:23:38.542Z,84.00
2022-08-21T04:24:38.539Z,92.00
2022-08-21T04:25:38.513Z,104.00
2022-08-21T04:26:38.506Z,116.00
2022-08-21T04:27:38.488Z,124.00
2022-08-21T04:28:38.477Z,136.00
2022-08-21T04:29:40.131Z,152.00
2022-08-21T04:30:38.451Z,164.00
2022-08-21T04:31:38.435Z,180.00
2022-08-21T04:32:38.720Z,196.00
2022-08-21T04:33:38.406Z,212.00
2022-08-21T04:34:38.394Z,228.00
2022-08-21T04:35:38.375Z,248.00
2022-08-21T04:36:38.365Z,268.00
2022-08-21T04:37:41.538Z,288.00
2022-08-21T04:38:38.339Z,312.00
2022-08-21T04:39:39.388Z,336.00
2022-08-21T04:40:38.315Z,360.00
2022-08-21T04:41:38.298Z,384.00
2022-08-21T04:42:38.285Z,404.00
2022-08-21T04:43:38.265Z,428.00
2022-08-21T04:44:38.257Z,448.00
2022-08-21T04:45:38.243Z,472.00
2022-08-21T04:46:38.231Z,492.00
2022-08-21T04:47:41.824Z,512.00
2022-08-21T04:48:39.227Z,536.00
2022-08-21T04:49:38.186Z,556.00
2022-08-21T04:50:38.176Z,576.00
2022-08-21T04:51:38.165Z,600.00
2022-08-21T04:52:38.151Z,620.00
2022-08-21T04:53:38.138Z,640.00
2022-08-21T04:54:38.122Z,660.00
2022-08-21T04:55:38.110Z,684.00
2022-08-21T04:56:38.096Z,708.00
2022-08-21T04:57:48.762Z,728.00
2022-08-21T04:58:39.095Z,752.00
2022-08-21T04:59:38.049Z,772.00
2022-08-21T05:00:38.039Z,792.00
2022-08-21T05:01:38.052Z,812.00
2022-08-21T05:02:38.014Z,836.00
2022-08-21T05:03:37.995Z,860.00
2022-08-21T05:04:37.985Z,876.00
2022-08-21T05:05:37.969Z,896.00
2022-08-21T05:06:37.981Z,920.00
2022-08-21T05:07:42.126Z,940.00
2022-08-21T05:08:37.934Z,960.00
2022-08-21T05:09:37.918Z,976.00
2022-08-21T05:10:37.902Z,996.00
2022-08-21T05:11:37.887Z,1020.00
2022-08-21T05:12:37.875Z,1044.00
2022-08-21T05:13:37.855Z,1064.00
2022-08-21T05:14:37.856Z,1092.00
2022-08-21T05:15:37.838Z,1120.00
2022-08-21T05:16:38.023Z,1156.00
2022-08-21T05:17:37.808Z,1188.00
2022-08-21T05:18:37.800Z,1276.00
2022-08-21T05:19:37.782Z,1304.00
2022-08-21T05:20:37.770Z,1288.00
2022-08-21T05:21:37.751Z,1316.00
2022-08-21T05:22:37.736Z,1356.00
2022-08-21T05:23:37.721Z,1396.00
2022-08-21T05:24:37.713Z,1432.00
2022-08-21T05:25:37.692Z,1448.00
2022-08-21T05:26:38.272Z,1460.00
2022-08-21T05:27:39.214Z,1484.00
2022-08-21T05:28:37.655Z,1572.00
2022-08-21T05:29:37.640Z,1532.00
2022-08-21T05:30:37.634Z,1476.00
2022-08-21T05:31:37.618Z,1472.00
2022-08-21T05:32:37.611Z,1476.00
2022-08-21T05:33:37.589Z,1360.00
2022-08-21T05:34:37.585Z,1520.00
2022-08-21T05:35:37.561Z,1576.00
2022-08-21T05:36:37.557Z,1668.00
2022-08-21T05:37:37.537Z,1888.00
2022-08-21T05:38:37.525Z,2016.00
2022-08-21T05:40:05.103Z,2188.00
2022-08-21T05:40:38.538Z,2544.00
2022-08-21T05:41:37.483Z,3012.00
2022-08-21T05:42:37.491Z,3412.00
2022-08-21T05:43:37.459Z,3440.00
2022-08-21T05:44:37.451Z,4124.00
2022-08-21T05:45:42.519Z,4300.00
2022-08-21T05:46:38.436Z,4612.00
2022-08-21T05:47:37.396Z,4976.00
2022-08-21T05:48:37.391Z,5476.00
2022-08-21T05:49:37.370Z,6196.00
2022-08-21T05:50:37.362Z,5684.00
2022-08-21T05:51:37.340Z,4736.00
2022-08-21T05:52:37.332Z,4160.00
2022-08-21T05:53:37.319Z,3980.00
2022-08-21T05:54:37.310Z,3908.00
2022-08-21T05:55:40.200Z,3912.00
2022-08-21T05:56:37.287Z,3992.00
2022-08-21T05:57:37.272Z,4188.00
2022-08-21T05:58:37.257Z,4964.00
2022-08-21T05:59:37.238Z,6340.00
2022-08-21T06:00:37.230Z,7392.00
2022-08-21T06:01:37.407Z,7816.00
2022-08-21T06:02:37.195Z,8084.00
2022-08-21T06:03:37.182Z,8236.00
2022-08-21T06:04:37.168Z,8252.00
2022-08-21T06:05:37.718Z,8308.00
2022-08-21T06:06:37.141Z,8420.00
2022-08-21T06:07:37.127Z,8564.00
2022-08-21T06:08:37.118Z,8972.00
2022-08-21T06:09:37.097Z,9296.00
2022-08-21T06:10:37.091Z,9680.00
2022-08-21T06:11:37.078Z,9928.00
2022-08-21T06:12:37.067Z,10000.00
2022-08-21T06:13:37.050Z,10080.00
2022-08-21T06:14:37.037Z,10092.00
2022-08-21T06:15:37.017Z,10220.00
2022-08-21T06:16:37.011Z,10352.00
2022-08-21T06:17:36.990Z,10436.00
2022-08-21T06:18:36.982Z,10488.00
2022-08-21T06:19:36.970Z,10536.00
2022-08-21T06:20:36.960Z,10744.00
2022-08-21T06:21:36.940Z,10888.00
2022-08-21T06:22:36.931Z,10936.00
2022-08-21T06:23:36.915Z,11076.00
2022-08-21T06:24:36.911Z,11360.00
2022-08-21T06:25:36.890Z,11644.00
2022-08-21T06:26:36.870Z,11072.00
2022-08-21T06:27:36.858Z,8672.00
2022-08-21T06:28:36.851Z,6152.00
2022-08-21T06:29:44.369Z,5404.00
2022-08-21T06:30:37.834Z,5124.00
2022-08-21T06:31:36.800Z,4960.00
2022-08-21T06:32:36.790Z,4856.00
2022-08-21T06:33:36.774Z,4788.00
2022-08-21T06:34:36.773Z,4748.00
2022-08-21T06:35:36.752Z,4732.00
2022-08-21T06:36:36.743Z,4728.00
2022-08-21T06:37:36.722Z,4736.00
2022-08-21T06:38:37.066Z,4752.00
2022-08-21T06:39:36.735Z,4784.00
2022-08-21T06:40:36.685Z,4800.00
2022-08-21T06:41:39.231Z,4824.00
2022-08-21T06:42:36.661Z,4852.00
2022-08-21T06:43:39.240Z,4896.00
2022-08-21T06:44:36.629Z,4964.00
2022-08-21T06:45:36.611Z,5024.00
2022-08-21T06:46:36.609Z,5116.00
2022-08-21T06:47:36.590Z,5228.00
2022-08-21T06:48:36.578Z,5372.00
2022-08-21T06:49:36.563Z,5552.00
2022-08-21T06:50:36.546Z,5824.00
2022-08-21T06:51:36.530Z,6328.00
2022-08-21T06:52:36.522Z,8524.00
2022-08-21T06:53:36.508Z,12724.00
2022-08-21T06:54:36.496Z,15744.00
2022-08-21T06:55:36.475Z,16480.00
2022-08-21T06:56:36.468Z,16960.00
2022-08-21T06:57:36.447Z,16992.00
2022-08-21T06:58:36.443Z,17280.00
2022-08-21T06:59:36.432Z,17760.00
2022-08-21T07:00:36.416Z,17856.00
2022-08-21T07:01:36.459Z,18272.00
2022-08-21T07:02:36.393Z,18560.00
2022-08-21T07:03:36.380Z,18592.00
2022-08-21T07:04:36.368Z,18912.00
2022-08-21T07:05:36.347Z,19712.00
2022-08-21T07:06:36.338Z,19744.00
2022-08-21T07:07:36.320Z,19968.00
2022-08-21T07:08:36.307Z,20160.00
2022-08-21T07:09:36.291Z,20512.00
2022-08-21T07:10:36.286Z,20288.00
2022-08-21T07:11:39.407Z,20512.00
2022-08-21T07:12:37.273Z,20608.00
2022-08-21T07:13:36.238Z,21440.00
2022-08-21T07:14:36.235Z,21504.00
2022-08-21T07:15:36.215Z,22080.00
2022-08-21T07:16:36.209Z,22240.00
2022-08-21T07:17:36.189Z,22112.00
2022-08-21T07:18:36.174Z,22176.00
2022-08-21T07:19:36.167Z,22048.00
2022-08-21T07:20:36.147Z,22464.00
2022-08-21T07:21:36.140Z,22336.00
2022-08-21T07:22:36.119Z,22368.00
2022-08-21T07:23:36.107Z,22720.00
2022-08-21T07:24:36.096Z,22848.00
2022-08-21T07:25:36.083Z,23072.00
2022-08-21T07:26:36.069Z,23040.00
2022-08-21T07:27:36.057Z,23392.00
2022-08-21T07:28:36.039Z,23104.00
2022-08-21T07:29:36.034Z,23840.00
2022-08-21T07:30:36.049Z,23328.00
2022-08-21T07:31:36.007Z,23264.00
2022-08-21T07:32:35.993Z,22848.00
2022-08-21T07:33:35.982Z,23264.00
2022-08-21T07:34:35.970Z,24736.00
2022-08-21T07:35:35.954Z,24800.00
2022-08-21T07:36:35.939Z,25568.00
2022-08-21T07:37:35.929Z,25664.00
2022-08-21T07:38:35.913Z,25920.00
2022-08-21T07:39:35.932Z,26304.00
2022-08-21T07:40:35.885Z,26976.00
2022-08-21T07:41:35.875Z,28128.00
2022-08-21T07:42:35.863Z,28096.00
2022-08-21T07:43:35.851Z,30112.00
2022-08-21T07:44:35.833Z,29952.00
2022-08-21T07:45:35.825Z,31872.00
2022-08-21T07:46:35.811Z,30272.00
2022-08-21T07:47:42.381Z,30752.00
2022-08-21T07:48:36.811Z,28448.00
2022-08-21T07:49:35.774Z,27648.00
2022-08-21T07:50:35.753Z,24640.00
2022-08-21T07:51:35.746Z,17792.00
2022-08-21T07:52:35.728Z,11784.00
2022-08-21T07:53:35.719Z,10124.00
2022-08-21T07:54:35.714Z,9388.00
2022-08-21T07:55:35.700Z,8944.00
2022-08-21T07:56:35.686Z,8636.00
2022-08-21T07:57:35.675Z,8416.00
2022-08-21T07:58:35.655Z,8236.00
2022-08-21T07:59:35.652Z,8100.00
2022-08-21T08:00:35.632Z,8000.00
2022-08-21T08:01:35.713Z,7912.00
2022-08-21T08:02:35.601Z,7844.00
2022-08-21T08:03:35.591Z,7800.00
2022-08-21T08:04:35.576Z,7768.00
2022-08-21T08:05:35.566Z,7748.00
2022-08-21T08:06:35.549Z,7700.00
2022-08-21T08:07:35.540Z,7692.00
2022-08-21T08:08:35.681Z,7684.00
2022-08-21T08:09:35.514Z,7696.00
2022-08-21T08:10:35.505Z,7744.00
2022-08-21T08:11:35.494Z,7772.00
2022-08-21T08:12:35.477Z,7816.00
2022-08-21T08:13:35.474Z,7892.00
2022-08-21T08:14:35.451Z,8000.00
2022-08-21T08:15:37.598Z,8156.00
2022-08-21T08:16:35.427Z,8388.00
2022-08-21T08:17:35.423Z,8788.00
2022-08-21T08:18:35.398Z,9496.00
2022-08-21T08:19:35.388Z,11512.00
2022-08-21T08:20:35.372Z,24448.00
2022-08-21T08:21:35.372Z,35040.00
2022-08-21T08:22:35.351Z,39712.00
2022-08-21T08:23:35.343Z,41056.00
2022-08-21T08:24:35.327Z,39968.00
2022-08-21T08:25:36.411Z,43456.00
2022-08-21T08:26:35.299Z,42432.00
2022-08-21T08:27:35.289Z,42688.00
2022-08-21T08:28:35.277Z,42688.00
2022-08-21T08:29:35.263Z,40864.00
2022-08-21T08:30:35.247Z,41824.00
2022-08-21T08:31:35.240Z,41216.00
2022-08-21T08:32:35.222Z,40160.00
2022-08-21T08:33:35.216Z,41952.00
2022-08-21T08:34:35.205Z,43808.00
2022-08-21T08:35:35.193Z,43104.00
2022-08-21T08:36:35.177Z,44576.00
2022-08-21T08:37:35.173Z,44384.00
2022-08-21T08:38:35.152Z,43456.00
2022-08-21T08:39:35.222Z,42144.00
2022-08-21T08:40:35.126Z,41824.00
2022-08-21T08:41:35.115Z,43840.00
2022-08-21T08:42:35.106Z,44960.00
2022-08-21T08:43:35.089Z,43456.00
2022-08-21T08:44:35.344Z,45952.00
2022-08-21T08:45:35.071Z,43328.00
2022-08-21T08:46:35.051Z,44704.00
2022-08-21T08:47:35.040Z,45280.00
2022-08-21T08:48:35.026Z,43360.00
2022-08-21T08:49:35.019Z,45952.00
2022-08-21T08:50:35.003Z,46048.00
2022-08-21T08:51:34.997Z,45056.00
2022-08-21T08:52:34.980Z,47104.00
2022-08-21T08:53:34.970Z,46176.00
2022-08-21T08:54:34.961Z,46848.00
2022-08-21T08:55:34.940Z,47008.00
2022-08-21T08:56:34.925Z,45440.00
2022-08-21T08:57:34.915Z,48896.00
2022-08-21T08:58:34.947Z,48992.00
2022-08-21T08:59:34.899Z,47360.00
2022-08-21T09:00:34.883Z,48960.00
2022-08-21T09:01:38.813Z,49856.00
2022-08-21T09:02:34.862Z,49024.00
2022-08-21T09:03:34.850Z,49152.00
2022-08-21T09:04:34.834Z,49088.00
2022-08-21T09:05:34.831Z,48480.00
2022-08-21T09:06:34.803Z,51488.00
2022-08-21T09:07:34.804Z,51456.00
2022-08-21T09:08:34.790Z,50720.00
2022-08-21T09:09:34.778Z,52064.00
2022-08-21T09:10:34.754Z,52512.00
2022-08-21T09:11:34.747Z,50432.00
2022-08-21T09:12:34.737Z,50272.00
2022-08-21T09:13:38.468Z,48416.00
2022-08-21T09:14:34.714Z,49824.00
2022-08-21T09:15:34.704Z,49792.00
2022-08-21T09:16:34.687Z,48608.00
2022-08-21T09:17:34.683Z,49888.00
2022-08-21T09:18:34.666Z,49600.00
2022-08-21T09:19:34.657Z,51520.00
2022-08-21T09:20:34.643Z,50048.00
2022-08-21T09:21:34.665Z,48896.00
2022-08-21T09:22:34.637Z,49472.00
2022-08-21T09:23:34.606Z,49408.00
2022-08-21T09:24:34.589Z,48192.00
2022-08-21T09:25:34.582Z,48224.00
2022-08-21T09:26:34.573Z,51264.00
2022-08-21T09:27:34.561Z,51104.00
2022-08-21T09:28:34.544Z,51904.00
2022-08-21T09:29:34.539Z,54560.00
2022-08-21T09:30:34.518Z,56320.00
2022-08-21T09:31:34.515Z,56864.00
2022-08-21T09:32:36.822Z,57856.00
2022-08-21T09:33:34.491Z,57440.00
2022-08-21T09:34:34.519Z,58304.00
2022-08-21T09:35:34.552Z,57760.00
2022-08-21T09:36:34.455Z,54656.00
2022-08-21T09:37:34.447Z,57024.00
2022-08-21T09:38:34.462Z,58528.00
2022-08-21T09:39:40.191Z,56000.00
2022-08-21T09:40:35.518Z,55552.00
2022-08-21T09:41:34.404Z,58464.00
2022-08-21T09:42:34.389Z,57472.00
2022-08-21T09:43:34.381Z,54816.00
2022-08-21T09:44:34.368Z,56800.00
2022-08-21T09:45:34.359Z,60736.00
2022-08-21T09:46:34.337Z,55264.00
2022-08-21T09:47:34.334Z,54272.00
2022-08-21T09:48:34.315Z,60576.00
2022-08-21T09:49:34.306Z,60352.00
2022-08-21T09:50:34.292Z,55232.00
2022-08-21T09:51:34.284Z,56160.00
2022-08-21T09:52:34.270Z,59296.00
2022-08-21T09:53:36.088Z,58592.00
2022-08-21T09:54:34.251Z,56768.00
2022-08-21T09:55:34.242Z,57952.00
2022-08-21T09:56:34.229Z,59168.00
2022-08-21T09:57:34.221Z,57792.00
2022-08-21T09:58:34.202Z,58272.00
2022-08-21T09:59:37.125Z,59648.00
2022-08-21T10:00:34.259Z,59008.00
2022-08-21T10:01:34.174Z,59584.00
2022-08-21T10:02:34.156Z,60736.00
2022-08-21T10:03:34.144Z,62144.00
2022-08-21T10:04:34.133Z,63168.00
2022-08-21T10:05:34.126Z,63072.00
2022-08-21T10:06:34.110Z,62176.00
2022-08-21T10:07:34.104Z,64832.00
2022-08-21T10:08:34.089Z,64960.00
2022-08-21T10:09:34.086Z,64000.00
2022-08-21T10:10:34.063Z,64288.00
2022-08-21T10:11:34.061Z,64384.00
2022-08-21T10:12:34.042Z,62176.00
2022-08-21T10:13:34.037Z,58624.00
2022-08-21T10:14:34.024Z,57248.00
2022-08-21T10:15:34.014Z,57440.00
2022-08-21T10:16:34.001Z,55584.00
2022-08-21T10:17:34.015Z,52320.00
2022-08-21T10:18:33.978Z,53952.00
2022-08-21T10:19:33.969Z,59904.00
2022-08-21T10:20:33.955Z,59168.00
2022-08-21T10:21:33.949Z,59104.00
2022-08-21T10:22:33.934Z,61760.00
2022-08-21T10:23:33.930Z,62880.00
2022-08-21T10:24:33.917Z,61760.00
2022-08-21T10:25:33.903Z,57184.00
2022-08-21T10:26:33.884Z,54912.00
2022-08-21T10:27:33.879Z,38688.00
2022-08-21T10:28:33.864Z,17792.00
2022-08-21T10:29:33.868Z,13536.00
2022-08-21T10:30:33.839Z,12380.00
2022-08-21T10:31:33.834Z,11712.00
2022-08-21T10:32:33.820Z,11364.00
2022-08-21T10:33:33.815Z,11204.00
2022-08-21T10:34:33.798Z,11116.00
2022-08-21T10:35:33.794Z,11148.00
2022-08-21T10:36:33.775Z,11256.00
2022-08-21T10:37:33.771Z,11520.00
2022-08-21T10:38:50.497Z,12124.00
2022-08-21T10:39:36.239Z,13448.00
2022-08-21T10:40:33.736Z,22688.00
2022-08-21T10:41:33.725Z,43904.00
2022-08-21T10:42:33.709Z,52640.00
2022-08-21T10:43:33.755Z,55008.00
2022-08-21T10:44:33.691Z,57792.00
2022-08-21T10:45:33.684Z,57920.00
2022-08-21T10:46:33.672Z,57728.00
2022-08-21T10:47:33.664Z,59520.00
2022-08-21T10:48:33.649Z,61792.00
2022-08-21T10:49:33.648Z,59904.00
2022-08-21T10:50:33.627Z,58080.00
2022-08-21T10:51:33.627Z,57248.00
2022-08-21T10:52:33.607Z,56672.00
2022-08-21T10:53:33.610Z,56704.00
2022-08-21T10:54:33.591Z,55584.00
2022-08-21T10:55:33.598Z,50560.00
2022-08-21T10:56:33.568Z,45088.00
2022-08-21T10:57:33.566Z,46944.00
2022-08-21T10:58:33.545Z,45984.00
2022-08-21T10:59:38.096Z,45952.00
2022-08-21T11:00:33.547Z,54528.00
2022-08-21T11:01:33.517Z,52512.00
2022-08-21T11:02:33.508Z,50048.00
2022-08-21T11:03:33.505Z,56448.00
2022-08-21T11:04:39.639Z,53856.00
2022-08-21T11:05:34.647Z,56960.00
2022-08-21T11:06:33.467Z,63488.00
2022-08-21T11:07:34.462Z,59744.00
2022-08-21T11:08:33.448Z,55712.00
2022-08-21T11:09:33.437Z,55840.00
2022-08-21T11:10:33.423Z,58976.00
2022-08-21T11:11:36.210Z,58432.00
2022-08-21T11:12:33.400Z,54368.00
2022-08-21T11:13:33.385Z,56032.00
2022-08-21T11:14:33.378Z,55872.00
2022-08-21T11:15:34.019Z,53312.00
2022-08-21T11:16:33.360Z,55008.00
2022-08-21T11:17:33.342Z,56128.00
2022-08-21T11:18:33.331Z,52000.00
2022-08-21T11:19:33.321Z,51456.00
2022-08-21T11:20:33.305Z,59712.00
2022-08-21T11:21:33.301Z,62848.00
2022-08-21T11:22:33.283Z,59072.00
2022-08-21T11:23:33.271Z,58144.00
2022-08-21T11:24:33.258Z,59392.00
2022-08-21T11:25:36.455Z,59392.00
2022-08-21T11:26:33.244Z,63488.00
2022-08-21T11:27:33.238Z,62240.00
2022-08-21T11:28:33.224Z,58976.00
2022-08-21T11:29:33.216Z,64864.00
2022-08-21T11:30:33.203Z,62528.00
2022-08-21T11:31:33.199Z,59264.00
2022-08-21T11:32:33.183Z,65760.00
2022-08-21T11:33:33.195Z,64928.00
2022-08-21T11:34:33.187Z,60160.00
2022-08-21T11:35:33.154Z,60928.00
2022-08-21T11:36:33.139Z,64384.00
2022-08-21T11:37:33.133Z,66528.00
2022-08-21T11:38:33.122Z,60416.00
2022-08-21T11:39:33.109Z,63168.00
2022-08-21T11:40:33.112Z,62208.00
2022-08-21T11:41:33.091Z,63360.00
2022-08-21T11:42:33.200Z,70496.00
2022-08-21T11:43:33.065Z,60288.00
2022-08-21T11:44:33.060Z,60640.00
2022-08-21T11:45:33.051Z,70016.00
2022-08-21T11:46:33.040Z,65184.00
2022-08-21T11:47:33.026Z,61216.00
2022-08-21T11:48:33.017Z,68960.00
2022-08-21T11:49:33.008Z,68832.00
2022-08-21T11:50:35.465Z,63168.00
2022-08-21T11:51:32.984Z,67040.00
2022-08-21T11:52:32.979Z,64576.00
2022-08-21T11:53:32.960Z,59808.00
2022-08-21T11:54:32.968Z,68224.00
2022-08-21T11:55:32.951Z,65312.00
2022-08-21T11:56:32.935Z,43264.00
2022-08-21T11:57:32.931Z,49088.00
2022-08-21T11:58:32.915Z,68416.00
2022-08-21T11:59:35.546Z,66272.00
2022-08-21T12:00:32.905Z,64480.00
2022-08-21T12:01:32.947Z,63904.00
2022-08-21T12:02:32.870Z,59264.00
2022-08-21T12:03:32.855Z,61728.00
2022-08-21T12:04:32.848Z,60896.00
2022-08-21T12:05:32.839Z,60960.00
2022-08-21T12:06:33.025Z,66880.00
2022-08-21T12:07:32.940Z,61504.00
2022-08-21T12:08:32.803Z,64256.00
2022-08-21T12:09:32.791Z,65056.00
2022-08-21T12:10:32.793Z,64384.00
2022-08-21T12:11:32.767Z,66944.00
2022-08-21T12:12:32.767Z,69664.00
2022-08-21T12:13:40.023Z,64256.00
2022-08-21T12:14:33.772Z,61728.00
2022-08-21T12:15:32.816Z,67328.00
2022-08-21T12:16:32.719Z,65120.00
2022-08-21T12:17:32.710Z,62976.00
2022-08-21T12:18:32.695Z,64192.00
2022-08-21T12:19:32.687Z,58208.00
2022-08-21T12:20:32.670Z,55104.00
2022-08-21T12:21:32.656Z,57792.00